TimeEDT,TemperatureF,Dew PointF,Humidity,Sea Level PressureIn,VisibilityMPH,Wind Direction,Wind SpeedMPH,Gust SpeedMPH,PrecipitationIn,Events,Conditions,WindDirDegrees,DateUTC
12:00 AM,60.3,36.1,41,30.22,-9999.0,North,-9999.0,-,N/A,,Unknown,0,2013-05-03 04:00:00
1:00 AM,63.1,31.3,30,30.22,-9999.0,North,-9999.0,-,N/A,,Unknown,0,2013-05-03 05:00:00
2:00 AM,60,34,26,30.21,,Calm,Calm,,,,,,2013-05-03 06:00:00
2:00 AM,60.3,34.2,38,30.21,-9999.0,North,-9999.0,-,N/A,,Unknown,0,2013-05-03 06:00:00
3:00 AM,61.0,31.3,33,30.21,-9999.0,North,-9999.0,-,N/A,,Unknown,0,2013-05-03 07:00:00
4:00 AM,60.8,33.1,35,30.20,-9999.0,North,-9999.0,-,N/A,,Unknown,0,2013-05-03 08:00:00
5:00 AM,59.9,34.5,39,30.21,-9999.0,North,-9999.0,-,N/A,,Unknown,0,2013-05-03 09:00:00
6:00 AM,57.4,35.2,43,30.23,-9999.0,North,-9999.0,-,N/A,,Unknown,0,2013-05-03 10:00:00
7:00 AM,57.2,36.5,46,30.24,-9999.0,North,-9999.0,-,N/A,,Unknown,0,2013-05-03 11:00:00
8:00 AM,60,37,30,30.24,,Calm,Calm,,,,,,2013-05-03 12:00:00
8:00 AM,59.9,36.9,42,30.24,-9999.0,North,-9999.0,-,N/A,,Unknown,0,2013-05-03 12:00:00
9:00 AM,66.7,36.0,32,30.24,-9999.0,North,-9999.0,-,N/A,,Unknown,0,2013-05-03 13:00:00
10:00 AM,70.0,35.1,28,30.24,-9999.0,North,-9999.0,-,N/A,,Unknown,0,2013-05-03 14:00:00
11:00 AM,72.7,33.3,24,30.23,-9999.0,North,-9999.0,-,N/A,,Unknown,0,2013-05-03 15:00:00
12:00 PM,74.7,36.5,25,30.22,-9999.0,North,-9999.0,-,N/A,,Unknown,0,2013-05-03 16:00:00
1:00 PM,77.4,31.8,19,30.21,-9999.0,North,-9999.0,-,N/A,,Unknown,0,2013-05-03 17:00:00
2:00 PM,77,35,12,30.20,,Calm,Calm,,,,,,2013-05-03 18:00:00
2:00 PM,77.0,34.9,22,30.20,-9999.0,North,-9999.0,-,N/A,,Unknown,0,2013-05-03 18:00:00
3:00 PM,79.2,35.4,21,30.18,-9999.0,North,-9999.0,-,N/A,,Unknown,0,2013-05-03 19:00:00
4:00 PM,76.8,37.8,24,30.17,-9999.0,North,-9999.0,-,N/A,,Unknown,0,2013-05-03 20:00:00
5:00 PM,77.2,36.7,23,30.17,-9999.0,North,-9999.0,-,N/A,,Unknown,0,2013-05-03 21:00:00
6:00 PM,75.4,38.7,27,30.16,-9999.0,North,-9999.0,-,N/A,,Unknown,0,2013-05-03 22:00:00
7:00 PM,75.9,37.8,25,30.16,-9999.0,North,-9999.0,-,N/A,,Unknown,0,2013-05-03 23:00:00
8:00 PM,74,38,16,30.17,,Calm,Calm,,,,,,2013-05-04 00:00:00
8:00 PM,74.3,37.6,26,30.17,-9999.0,North,-9999.0,-,N/A,,Unknown,0,2013-05-04 00:00:00
9:00 PM,66.6,41.4,40,30.18,-9999.0,North,-9999.0,-,N/A,,Unknown,0,2013-05-04 01:00:00
10:00 PM,64.4,40.8,42,30.19,-9999.0,North,-9999.0,-,N/A,,Unknown,0,2013-05-04 02:00:00
11:00 PM,62.2,42.6,49,30.19,-9999.0,North,-9999.0,-,N/A,,Unknown,0,2013-05-04 03:00:00